sensor_id;sensor_type;location;lat;lon;timestamp;temperature;humidity
46137;DHT22;31871;49.418;8.752;2022-09-09T00:01:27;17.10;99.90
46137;DHT22;31871;49.418;8.752;2022-09-09T00:07:34;16.90;99.90
46137;DHT22;31871;49.418;8.752;2022-09-09T00:12:46;16.80;99.90
46137;DHT22;31871;49.418;8.752;2022-09-09T00:15:17;16.80;99.90
46137;DHT22;31871;49.418;8.752;2022-09-09T00:17:48;16.80;99.90
46137;DHT22;31871;49.418;8.752;2022-09-09T00:23:14;16.70;99.90
46137;DHT22;31871;49.418;8.752;2022-09-09T00:25:59;16.70;99.90
46137;DHT22;31871;49.418;8.752;2022-09-09T00:28:28;16.70;99.90
46137;DHT22;31871;49.418;8.752;2022-09-09T00:31:04;16.70;99.90
46137;DHT22;31871;49.418;8.752;2022-09-09T00:33:34;16.70;99.90
46137;DHT22;31871;49.418;8.752;2022-09-09T00:36:00;16.70;99.90
46137;DHT22;31871;49.418;8.752;2022-09-09T00:38:36;16.60;99.90
46137;DHT22;31871;49.418;8.752;2022-09-09T00:41:14;16.50;99.90
46137;DHT22;31871;49.418;8.752;2022-09-09T00:43:41;16.50;99.90
46137;DHT22;31871;49.418;8.752;2022-09-09T00:52:05;16.40;99.90
46137;DHT22;31871;49.418;8.752;2022-09-09T00:57:44;16.40;99.90
46137;DHT22;31871;49.418;8.752;2022-09-09T01:00:24;16.40;99.90
46137;DHT22;31871;49.418;8.752;2022-09-09T01:05:33;16.40;99.90
46137;DHT22;31871;49.418;8.752;2022-09-09T01:08:03;16.40;99.90
46137;DHT22;31871;49.418;8.752;2022-09-09T01:10:41;16.30;99.90
46137;DHT22;31871;49.418;8.752;2022-09-09T01:13:23;16.30;99.90
46137;DHT22;31871;49.418;8.752;2022-09-09T01:15:50;16.30;99.90
46137;DHT22;31871;49.418;8.752;2022-09-09T01:18:21;16.30;99.90
46137;DHT22;31871;49.418;8.752;2022-09-09T01:26:44;16.20;99.90
46137;DHT22;31871;49.418;8.752;2022-09-09T01:29:13;16.30;99.90
46137;DHT22;31871;49.418;8.752;2022-09-09T01:34:17;16.30;99.90
46137;DHT22;31871;49.418;8.752;2022-09-09T01:39:20;16.40;99.90
46137;DHT22;31871;49.418;8.752;2022-09-09T01:41:46;16.40;99.90
46137;DHT22;31871;49.418;8.752;2022-09-09T01:44:12;16.50;99.90
46137;DHT22;31871;49.418;8.752;2022-09-09T01:46:37;16.60;99.90
46137;DHT22;31871;49.418;8.752;2022-09-09T01:49:05;16.50;99.90
46137;DHT22;31871;49.418;8.752;2022-09-09T01:51:33;16.50;99.90
46137;DHT22;31871;49.418;8.752;2022-09-09T01:53:59;16.40;99.90
46137;DHT22;31871;49.418;8.752;2022-09-09T01:59:21;16.40;99.90
46137;DHT22;31871;49.418;8.752;2022-09-09T02:04:31;16.50;99.90
46137;DHT22;31871;49.418;8.752;2022-09-09T02:07:01;16.40;99.90
46137;DHT22;31871;49.418;8.752;2022-09-09T02:09:29;16.40;99.90
46137;DHT22;31871;49.418;8.752;2022-09-09T02:12:15;16.40;99.90
46137;DHT22;31871;49.418;8.752;2022-09-09T02:14:47;16.40;99.90
46137;DHT22;31871;49.418;8.752;2022-09-09T02:17:19;16.30;99.90
46137;DHT22;31871;49.418;8.752;2022-09-09T02:19:49;16.30;99.90
46137;DHT22;31871;49.418;8.752;2022-09-09T02:22:17;16.30;99.90
46137;DHT22;31871;49.418;8.752;2022-09-09T02:24:45;16.30;99.90
46137;DHT22;31871;49.418;8.752;2022-09-09T02:27:12;16.20;99.90
46137;DHT22;31871;49.418;8.752;2022-09-09T02:29:40;16.30;99.90
46137;DHT22;31871;49.418;8.752;2022-09-09T02:32:10;16.30;99.90
46137;DHT22;31871;49.418;8.752;2022-09-09T02:34:42;16.30;99.90
46137;DHT22;31871;49.418;8.752;2022-09-09T02:37:09;16.30;99.90
46137;DHT22;31871;49.418;8.752;2022-09-09T02:39:36;16.30;99.90
46137;DHT22;31871;49.418;8.752;2022-09-09T02:42:03;16.30;99.90
46137;DHT22;31871;49.418;8.752;2022-09-09T02:44:29;16.30;99.90
46137;DHT22;31871;49.418;8.752;2022-09-09T02:47:10;16.20;99.90
46137;DHT22;31871;49.418;8.752;2022-09-09T02:52:38;16.20;99.90
46137;DHT22;31871;49.418;8.752;2022-09-09T02:55:25;16.20;99.90
46137;DHT22;31871;49.418;8.752;2022-09-09T02:57:55;16.20;99.90
46137;DHT22;31871;49.418;8.752;2022-09-09T03:00:28;16.10;99.90
46137;DHT22;31871;49.418;8.752;2022-09-09T03:02:54;16.10;99.90
46137;DHT22;31871;49.418;8.752;2022-09-09T03:05:20;16.10;99.90
46137;DHT22;31871;49.418;8.752;2022-09-09T03:07:46;16.10;99.90
46137;DHT22;31871;49.418;8.752;2022-09-09T03:10:12;16.20;99.90
46137;DHT22;31871;49.418;8.752;2022-09-09T03:12:38;16.20;99.90
46137;DHT22;31871;49.418;8.752;2022-09-09T03:15:05;16.10;99.90
46137;DHT22;31871;49.418;8.752;2022-09-09T03:17:31;16.10;99.90
46137;DHT22;31871;49.418;8.752;2022-09-09T03:19:57;16.00;99.90
46137;DHT22;31871;49.418;8.752;2022-09-09T03:22:24;16.00;99.90
46137;DHT22;31871;49.418;8.752;2022-09-09T03:24:51;16.10;99.90
46137;DHT22;31871;49.418;8.752;2022-09-09T03:27:17;16.10;99.90
46137;DHT22;31871;49.418;8.752;2022-09-09T03:29:42;16.10;99.90
46137;DHT22;31871;49.418;8.752;2022-09-09T03:32:08;16.10;99.90
46137;DHT22;31871;49.418;8.752;2022-09-09T03:34:36;16.10;99.90
46137;DHT22;31871;49.418;8.752;2022-09-09T03:37:04;16.10;99.90
46137;DHT22;31871;49.418;8.752;2022-09-09T03:39:30;16.00;99.90
46137;DHT22;31871;49.418;8.752;2022-09-09T03:41:56;15.90;99.90
46137;DHT22;31871;49.418;8.752;2022-09-09T03:44:22;15.90;99.90
46137;DHT22;31871;49.418;8.752;2022-09-09T03:46:47;15.90;99.90
46137;DHT22;31871;49.418;8.752;2022-09-09T03:49:13;15.90;99.90
46137;DHT22;31871;49.418;8.752;2022-09-09T03:51:39;15.80;99.90
46137;DHT22;31871;49.418;8.752;2022-09-09T03:54:06;15.80;99.90
46137;DHT22;31871;49.418;8.752;2022-09-09T03:56:34;15.90;99.90
46137;DHT22;31871;49.418;8.752;2022-09-09T03:59:00;15.80;99.90
46137;DHT22;31871;49.418;8.752;2022-09-09T04:01:26;15.80;99.90
46137;DHT22;31871;49.418;8.752;2022-09-09T04:03:52;15.80;99.90
46137;DHT22;31871;49.418;8.752;2022-09-09T04:06:18;15.80;99.90
46137;DHT22;31871;49.418;8.752;2022-09-09T04:08:45;15.80;99.90
46137;DHT22;31871;49.418;8.752;2022-09-09T04:11:13;15.70;99.90
46137;DHT22;31871;49.418;8.752;2022-09-09T04:13:39;15.80;99.90
46137;DHT22;31871;49.418;8.752;2022-09-09T04:16:06;15.80;99.90
46137;DHT22;31871;49.418;8.752;2022-09-09T04:18:32;15.80;99.90
46137;DHT22;31871;49.418;8.752;2022-09-09T04:20:58;15.80;99.90
46137;DHT22;31871;49.418;8.752;2022-09-09T04:23:25;15.80;99.90
46137;DHT22;31871;49.418;8.752;2022-09-09T04:25:54;15.80;99.90
46137;DHT22;31871;49.418;8.752;2022-09-09T04:28:22;15.80;99.90
46137;DHT22;31871;49.418;8.752;2022-09-09T04:30:48;15.80;99.90
46137;DHT22;31871;49.418;8.752;2022-09-09T04:33:14;15.80;99.90
46137;DHT22;31871;49.418;8.752;2022-09-09T04:35:45;15.80;99.90
46137;DHT22;31871;49.418;8.752;2022-09-09T04:38:12;15.80;99.90
46137;DHT22;31871;49.418;8.752;2022-09-09T04:40:37;15.80;99.90
46137;DHT22;31871;49.418;8.752;2022-09-09T04:43:08;15.80;99.90
46137;DHT22;31871;49.418;8.752;2022-09-09T04:45:33;15.90;99.90
46137;DHT22;31871;49.418;8.752;2022-09-09T04:47:59;15.80;99.90
46137;DHT22;31871;49.418;8.752;2022-09-09T04:50:25;15.90;99.90
46137;DHT22;31871;49.418;8.752;2022-09-09T04:52:50;15.80;99.90
46137;DHT22;31871;49.418;8.752;2022-09-09T04:55:16;15.90;99.90
46137;DHT22;31871;49.418;8.752;2022-09-09T04:57:41;15.90;99.90
46137;DHT22;31871;49.418;8.752;2022-09-09T05:00:08;15.90;99.90
46137;DHT22;31871;49.418;8.752;2022-09-09T05:02:37;15.90;99.90
46137;DHT22;31871;49.418;8.752;2022-09-09T05:05:04;15.90;99.90
46137;DHT22;31871;49.418;8.752;2022-09-09T05:07:29;15.90;99.90
46137;DHT22;31871;49.418;8.752;2022-09-09T05:09:56;15.90;99.90
46137;DHT22;31871;49.418;8.752;2022-09-09T05:12:22;15.90;99.90
46137;DHT22;31871;49.418;8.752;2022-09-09T05:14:49;15.90;99.90
46137;DHT22;31871;49.418;8.752;2022-09-09T05:17:15;16.00;99.90
46137;DHT22;31871;49.418;8.752;2022-09-09T05:19:41;16.00;99.90
46137;DHT22;31871;49.418;8.752;2022-09-09T05:22:07;16.00;99.90
46137;DHT22;31871;49.418;8.752;2022-09-09T05:24:33;16.20;99.90
46137;DHT22;31871;49.418;8.752;2022-09-09T05:26:59;16.30;99.90
46137;DHT22;31871;49.418;8.752;2022-09-09T05:29:27;16.50;99.90
46137;DHT22;31871;49.418;8.752;2022-09-09T05:31:52;16.50;99.90
46137;DHT22;31871;49.418;8.752;2022-09-09T05:34:18;16.60;99.90
46137;DHT22;31871;49.418;8.752;2022-09-09T05:36:44;16.50;99.90
46137;DHT22;31871;49.418;8.752;2022-09-09T05:39:10;16.70;99.90
46137;DHT22;31871;49.418;8.752;2022-09-09T05:41:37;16.70;99.90
46137;DHT22;31871;49.418;8.752;2022-09-09T05:44:03;16.80;99.90
46137;DHT22;31871;49.418;8.752;2022-09-09T05:46:29;16.80;99.90
46137;DHT22;31871;49.418;8.752;2022-09-09T05:48:55;16.80;99.90
46137;DHT22;31871;49.418;8.752;2022-09-09T05:51:22;16.80;99.90
46137;DHT22;31871;49.418;8.752;2022-09-09T05:53:49;16.90;99.90
46137;DHT22;31871;49.418;8.752;2022-09-09T05:56:24;16.90;99.90
46137;DHT22;31871;49.418;8.752;2022-09-09T05:58:50;16.90;99.90
46137;DHT22;31871;49.418;8.752;2022-09-09T06:01:28;16.90;99.90
46137;DHT22;31871;49.418;8.752;2022-09-09T06:03:54;17.00;99.90
46137;DHT22;31871;49.418;8.752;2022-09-09T06:06:25;17.10;99.90
46137;DHT22;31871;49.418;8.752;2022-09-09T06:08:53;17.10;99.90
46137;DHT22;31871;49.418;8.752;2022-09-09T06:11:24;17.00;99.90
46137;DHT22;31871;49.418;8.752;2022-09-09T06:13:51;17.20;99.90
46137;DHT22;31871;49.418;8.752;2022-09-09T06:16:21;17.10;99.90
46137;DHT22;31871;49.418;8.752;2022-09-09T06:18:51;17.20;99.90
46137;DHT22;31871;49.418;8.752;2022-09-09T06:21:25;17.20;99.90
46137;DHT22;31871;49.418;8.752;2022-09-09T06:23:50;17.20;99.90
46137;DHT22;31871;49.418;8.752;2022-09-09T06:26:22;17.40;99.90
46137;DHT22;31871;49.418;8.752;2022-09-09T06:28:50;17.40;99.90
46137;DHT22;31871;49.418;8.752;2022-09-09T06:31:19;17.50;99.90
46137;DHT22;31871;49.418;8.752;2022-09-09T06:33:50;17.70;99.90
46137;DHT22;31871;49.418;8.752;2022-09-09T06:36:21;17.70;99.90
46137;DHT22;31871;49.418;8.752;2022-09-09T06:38:47;17.70;99.90
46137;DHT22;31871;49.418;8.752;2022-09-09T06:41:15;17.80;99.90
46137;DHT22;31871;49.418;8.752;2022-09-09T06:43:41;17.90;99.90
46137;DHT22;31871;49.418;8.752;2022-09-09T06:46:13;18.00;99.90
46137;DHT22;31871;49.418;8.752;2022-09-09T06:48:40;18.00;99.90
46137;DHT22;31871;49.418;8.752;2022-09-09T06:51:17;17.90;99.90
46137;DHT22;31871;49.418;8.752;2022-09-09T06:53:44;18.00;99.90
46137;DHT22;31871;49.418;8.752;2022-09-09T06:58:40;18.00;99.90
46137;DHT22;31871;49.418;8.752;2022-09-09T07:01:11;18.00;99.90
46137;DHT22;31871;49.418;8.752;2022-09-09T07:03:38;18.00;99.90
46137;DHT22;31871;49.418;8.752;2022-09-09T07:06:05;18.00;99.90
46137;DHT22;31871;49.418;8.752;2022-09-09T07:08:31;18.10;99.90
46137;DHT22;31871;49.418;8.752;2022-09-09T07:11:02;18.00;99.90
46137;DHT22;31871;49.418;8.752;2022-09-09T07:13:30;18.00;99.90
46137;DHT22;31871;49.418;8.752;2022-09-09T07:16:06;18.00;99.90
46137;DHT22;31871;49.418;8.752;2022-09-09T07:18:32;18.10;99.90
46137;DHT22;31871;49.418;8.752;2022-09-09T07:20:58;18.10;99.90
46137;DHT22;31871;49.418;8.752;2022-09-09T07:23:24;18.10;99.90
46137;DHT22;31871;49.418;8.752;2022-09-09T07:25:51;18.00;99.90
46137;DHT22;31871;49.418;8.752;2022-09-09T07:28:18;18.10;99.90
46137;DHT22;31871;49.418;8.752;2022-09-09T07:30:56;18.10;99.90
46137;DHT22;31871;49.418;8.752;2022-09-09T07:33:22;18.00;99.90
46137;DHT22;31871;49.418;8.752;2022-09-09T07:35:49;18.10;99.90
46137;DHT22;31871;49.418;8.752;2022-09-09T07:38:15;18.10;99.90
46137;DHT22;31871;49.418;8.752;2022-09-09T07:40:40;18.10;99.90
46137;DHT22;31871;49.418;8.752;2022-09-09T07:43:06;18.10;99.90
46137;DHT22;31871;49.418;8.752;2022-09-09T07:45:33;18.40;99.90
46137;DHT22;31871;49.418;8.752;2022-09-09T07:47:59;18.50;99.90
46137;DHT22;31871;49.418;8.752;2022-09-09T07:50:25;18.60;99.90
46137;DHT22;31871;49.418;8.752;2022-09-09T07:52:51;18.70;99.90
46137;DHT22;31871;49.418;8.752;2022-09-09T07:55:19;18.80;99.90
46137;DHT22;31871;49.418;8.752;2022-09-09T07:57:44;19.00;99.90
46137;DHT22;31871;49.418;8.752;2022-09-09T08:00:11;19.10;99.90
46137;DHT22;31871;49.418;8.752;2022-09-09T08:02:36;19.20;99.90
46137;DHT22;31871;49.418;8.752;2022-09-09T08:05:02;19.30;99.90
46137;DHT22;31871;49.418;8.752;2022-09-09T08:07:28;19.40;99.90
46137;DHT22;31871;49.418;8.752;2022-09-09T08:09:54;19.40;99.90
46137;DHT22;31871;49.418;8.752;2022-09-09T08:12:21;19.50;99.90
46137;DHT22;31871;49.418;8.752;2022-09-09T08:14:46;19.40;99.90
46137;DHT22;31871;49.418;8.752;2022-09-09T08:17:13;19.40;99.90
46137;DHT22;31871;49.418;8.752;2022-09-09T08:19:38;19.40;99.90
46137;DHT22;31871;49.418;8.752;2022-09-09T08:22:04;19.50;99.90
46137;DHT22;31871;49.418;8.752;2022-09-09T08:24:29;19.60;99.90
46137;DHT22;31871;49.418;8.752;2022-09-09T08:26:55;19.50;99.90
46137;DHT22;31871;49.418;8.752;2022-09-09T08:29:22;19.50;99.90
46137;DHT22;31871;49.418;8.752;2022-09-09T08:31:56;19.50;99.90
46137;DHT22;31871;49.418;8.752;2022-09-09T08:34:23;19.50;99.90
46137;DHT22;31871;49.418;8.752;2022-09-09T08:36:50;19.40;99.90
46137;DHT22;31871;49.418;8.752;2022-09-09T08:39:18;19.40;99.90
46137;DHT22;31871;49.418;8.752;2022-09-09T08:42:03;19.40;99.90
46137;DHT22;31871;49.418;8.752;2022-09-09T08:44:41;19.50;99.90
46137;DHT22;31871;49.418;8.752;2022-09-09T08:47:30;19.60;99.90
46137;DHT22;31871;49.418;8.752;2022-09-09T08:50:22;19.50;99.90
46137;DHT22;31871;49.418;8.752;2022-09-09T08:58:23;19.30;99.90
46137;DHT22;31871;49.418;8.752;2022-09-09T09:12:02;19.10;99.90
46137;DHT22;31871;49.418;8.752;2022-09-09T09:14:35;19.10;99.90
46137;DHT22;31871;49.418;8.752;2022-09-09T09:17:14;19.20;99.90
46137;DHT22;31871;49.418;8.752;2022-09-09T09:19:41;19.30;99.90
46137;DHT22;31871;49.418;8.752;2022-09-09T09:22:39;19.50;99.90
46137;DHT22;31871;49.418;8.752;2022-09-09T09:25:23;19.80;99.90
46137;DHT22;31871;49.418;8.752;2022-09-09T09:30:39;20.10;99.90
46137;DHT22;31871;49.418;8.752;2022-09-09T09:33:45;20.50;99.90
46137;DHT22;31871;49.418;8.752;2022-09-09T09:36:12;20.70;99.90
46137;DHT22;31871;49.418;8.752;2022-09-09T09:39:00;21.20;99.90
46137;DHT22;31871;49.418;8.752;2022-09-09T09:41:38;21.30;99.90
46137;DHT22;31871;49.418;8.752;2022-09-09T09:44:18;21.20;99.90
46137;DHT22;31871;49.418;8.752;2022-09-09T09:46:47;21.40;99.90
46137;DHT22;31871;49.418;8.752;2022-09-09T09:49:12;21.40;99.90
46137;DHT22;31871;49.418;8.752;2022-09-09T09:51:39;21.50;99.90
46137;DHT22;31871;49.418;8.752;2022-09-09T09:54:22;21.70;99.90
46137;DHT22;31871;49.418;8.752;2022-09-09T09:56:51;21.60;99.90
46137;DHT22;31871;49.418;8.752;2022-09-09T09:59:35;21.50;99.90
46137;DHT22;31871;49.418;8.752;2022-09-09T10:04:38;21.30;99.90
46137;DHT22;31871;49.418;8.752;2022-09-09T10:07:12;21.10;99.90
46137;DHT22;31871;49.418;8.752;2022-09-09T10:09:37;20.90;99.90
46137;DHT22;31871;49.418;8.752;2022-09-09T10:20:23;20.70;99.90
46137;DHT22;31871;49.418;8.752;2022-09-09T10:23:07;20.50;99.90
46137;DHT22;31871;49.418;8.752;2022-09-09T10:36:23;21.20;99.90
46137;DHT22;31871;49.418;8.752;2022-09-09T10:39:05;21.20;99.90
46137;DHT22;31871;49.418;8.752;2022-09-09T10:41:52;21.30;99.90
46137;DHT22;31871;49.418;8.752;2022-09-09T10:44:33;21.50;99.90
46137;DHT22;31871;49.418;8.752;2022-09-09T10:47:39;21.80;99.90
46137;DHT22;31871;49.418;8.752;2022-09-09T10:57:51;22.60;99.90
46137;DHT22;31871;49.418;8.752;2022-09-09T11:00:42;22.70;99.90
46137;DHT22;31871;49.418;8.752;2022-09-09T11:03:25;22.80;99.90
46137;DHT22;31871;49.418;8.752;2022-09-09T11:05:53;22.90;99.90
46137;DHT22;31871;49.418;8.752;2022-09-09T11:08:24;23.10;99.40
46137;DHT22;31871;49.418;8.752;2022-09-09T11:21:52;23.70;95.70
46137;DHT22;31871;49.418;8.752;2022-09-09T11:30:14;22.90;97.80
46137;DHT22;31871;49.418;8.752;2022-09-09T11:35:31;21.80;98.90
46137;DHT22;31871;49.418;8.752;2022-09-09T11:40:44;21.90;98.60
46137;DHT22;31871;49.418;8.752;2022-09-09T11:43:24;21.80;99.10
46137;DHT22;31871;49.418;8.752;2022-09-09T11:45:55;21.70;98.50
46137;DHT22;31871;49.418;8.752;2022-09-09T11:51:07;22.10;99.30
46137;DHT22;31871;49.418;8.752;2022-09-09T11:53:35;22.40;98.60
46137;DHT22;31871;49.418;8.752;2022-09-09T11:56:11;22.50;98.60
46137;DHT22;31871;49.418;8.752;2022-09-09T12:01:36;22.90;98.00
46137;DHT22;31871;49.418;8.752;2022-09-09T12:09:22;23.30;95.80
46137;DHT22;31871;49.418;8.752;2022-09-09T12:11:49;23.40;94.80
46137;DHT22;31871;49.418;8.752;2022-09-09T12:14:35;23.30;94.80
46137;DHT22;31871;49.418;8.752;2022-09-09T12:17:31;23.10;96.20
46137;DHT22;31871;49.418;8.752;2022-09-09T12:23:15;22.90;95.30
46137;DHT22;31871;49.418;8.752;2022-09-09T12:37:02;23.00;95.10
46137;DHT22;31871;49.418;8.752;2022-09-09T12:39:38;22.70;95.70
46137;DHT22;31871;49.418;8.752;2022-09-09T12:42:39;22.50;96.20
46137;DHT22;31871;49.418;8.752;2022-09-09T12:45:19;22.60;96.50
46137;DHT22;31871;49.418;8.752;2022-09-09T12:50:25;23.70;93.80
46137;DHT22;31871;49.418;8.752;2022-09-09T12:52:54;24.00;92.70
46137;DHT22;31871;49.418;8.752;2022-09-09T12:55:28;24.00;91.60
46137;DHT22;31871;49.418;8.752;2022-09-09T12:57:56;23.90;92.10
46137;DHT22;31871;49.418;8.752;2022-09-09T13:00:23;23.70;92.20
46137;DHT22;31871;49.418;8.752;2022-09-09T13:02:55;23.60;92.80
46137;DHT22;31871;49.418;8.752;2022-09-09T13:05:24;23.50;92.90
46137;DHT22;31871;49.418;8.752;2022-09-09T13:07:50;23.30;93.30
46137;DHT22;31871;49.418;8.752;2022-09-09T13:10:23;23.40;93.50
46137;DHT22;31871;49.418;8.752;2022-09-09T13:12:50;23.40;91.90
46137;DHT22;31871;49.418;8.752;2022-09-09T13:15:22;22.90;93.50
46137;DHT22;31871;49.418;8.752;2022-09-09T13:17:54;22.60;94.90
46137;DHT22;31871;49.418;8.752;2022-09-09T13:20:21;22.60;94.90
46137;DHT22;31871;49.418;8.752;2022-09-09T13:22:49;22.60;94.90
46137;DHT22;31871;49.418;8.752;2022-09-09T13:25:26;22.70;94.40
46137;DHT22;31871;49.418;8.752;2022-09-09T13:28:00;22.50;94.90
46137;DHT22;31871;49.418;8.752;2022-09-09T13:30:35;22.30;94.90
46137;DHT22;31871;49.418;8.752;2022-09-09T13:35:36;22.30;94.90
46137;DHT22;31871;49.418;8.752;2022-09-09T13:38:14;22.20;95.00
46137;DHT22;31871;49.418;8.752;2022-09-09T13:40:39;22.10;96.10
46137;DHT22;31871;49.418;8.752;2022-09-09T13:43:10;21.60;98.00
46137;DHT22;31871;49.418;8.752;2022-09-09T13:45:40;21.40;97.80
46137;DHT22;31871;49.418;8.752;2022-09-09T13:48:10;21.20;97.70
46137;DHT22;31871;49.418;8.752;2022-09-09T13:50:36;21.20;99.70
46137;DHT22;31871;49.418;8.752;2022-09-09T13:53:01;21.10;97.80
46137;DHT22;31871;49.418;8.752;2022-09-09T13:55:28;20.90;99.90
46137;DHT22;31871;49.418;8.752;2022-09-09T13:57:56;20.60;99.90
46137;DHT22;31871;49.418;8.752;2022-09-09T14:00:23;20.30;99.90
46137;DHT22;31871;49.418;8.752;2022-09-09T14:02:50;20.00;99.90
46137;DHT22;31871;49.418;8.752;2022-09-09T14:05:16;19.70;99.90
46137;DHT22;31871;49.418;8.752;2022-09-09T14:07:43;19.50;99.90
46137;DHT22;31871;49.418;8.752;2022-09-09T14:10:11;19.60;99.90
46137;DHT22;31871;49.418;8.752;2022-09-09T14:12:36;19.70;99.90
46137;DHT22;31871;49.418;8.752;2022-09-09T14:15:03;19.80;99.90
46137;DHT22;31871;49.418;8.752;2022-09-09T14:17:29;20.00;99.90
46137;DHT22;31871;49.418;8.752;2022-09-09T14:19:57;20.20;99.90
46137;DHT22;31871;49.418;8.752;2022-09-09T14:22:23;20.40;99.90
46137;DHT22;31871;49.418;8.752;2022-09-09T14:24:49;20.50;99.90
46137;DHT22;31871;49.418;8.752;2022-09-09T14:27:14;20.80;99.90
46137;DHT22;31871;49.418;8.752;2022-09-09T14:29:41;21.10;99.90
46137;DHT22;31871;49.418;8.752;2022-09-09T14:32:06;21.40;99.90
46137;DHT22;31871;49.418;8.752;2022-09-09T14:34:32;21.70;99.90
46137;DHT22;31871;49.418;8.752;2022-09-09T14:36:58;21.90;99.90
46137;DHT22;31871;49.418;8.752;2022-09-09T14:39:23;22.10;99.90
46137;DHT22;31871;49.418;8.752;2022-09-09T14:41:49;22.20;99.90
46137;DHT22;31871;49.418;8.752;2022-09-09T14:44:14;22.40;99.90
46137;DHT22;31871;49.418;8.752;2022-09-09T14:46:41;22.60;99.90
46137;DHT22;31871;49.418;8.752;2022-09-09T14:49:08;22.80;99.90
46137;DHT22;31871;49.418;8.752;2022-09-09T14:51:35;22.90;99.90
46137;DHT22;31871;49.418;8.752;2022-09-09T14:54:01;23.00;99.90
46137;DHT22;31871;49.418;8.752;2022-09-09T14:56:29;23.00;99.90
46137;DHT22;31871;49.418;8.752;2022-09-09T14:58:56;22.80;99.90
46137;DHT22;31871;49.418;8.752;2022-09-09T15:01:23;22.70;99.90
46137;DHT22;31871;49.418;8.752;2022-09-09T15:04:00;22.60;99.90
46137;DHT22;31871;49.418;8.752;2022-09-09T15:06:28;22.40;99.90
46137;DHT22;31871;49.418;8.752;2022-09-09T15:08:54;22.20;99.90
46137;DHT22;31871;49.418;8.752;2022-09-09T15:11:23;22.10;99.90
46137;DHT22;31871;49.418;8.752;2022-09-09T15:13:51;21.80;99.90
46137;DHT22;31871;49.418;8.752;2022-09-09T15:16:18;21.70;99.90
46137;DHT22;31871;49.418;8.752;2022-09-09T15:18:45;21.40;99.90
46137;DHT22;31871;49.418;8.752;2022-09-09T15:21:16;20.90;99.90
46137;DHT22;31871;49.418;8.752;2022-09-09T15:23:42;20.70;99.90
46137;DHT22;31871;49.418;8.752;2022-09-09T15:26:09;20.70;99.90
46137;DHT22;31871;49.418;8.752;2022-09-09T15:28:36;20.60;99.90
46137;DHT22;31871;49.418;8.752;2022-09-09T15:36:35;20.50;99.90
46137;DHT22;31871;49.418;8.752;2022-09-09T15:39:02;20.40;99.90
46137;DHT22;31871;49.418;8.752;2022-09-09T15:41:29;20.40;99.90
46137;DHT22;31871;49.418;8.752;2022-09-09T15:43:56;20.30;99.90
46137;DHT22;31871;49.418;8.752;2022-09-09T15:48:56;20.20;99.90
46137;DHT22;31871;49.418;8.752;2022-09-09T15:51:23;19.80;99.90
46137;DHT22;31871;49.418;8.752;2022-09-09T15:53:56;19.40;99.90
46137;DHT22;31871;49.418;8.752;2022-09-09T15:56:26;19.20;99.90
46137;DHT22;31871;49.418;8.752;2022-09-09T15:58:52;19.20;99.90
46137;DHT22;31871;49.418;8.752;2022-09-09T16:01:19;19.00;99.90
46137;DHT22;31871;49.418;8.752;2022-09-09T16:03:45;19.10;99.90
46137;DHT22;31871;49.418;8.752;2022-09-09T16:06:22;19.10;99.90
46137;DHT22;31871;49.418;8.752;2022-09-09T16:08:50;19.20;99.90
46137;DHT22;31871;49.418;8.752;2022-09-09T16:11:24;19.10;99.90
46137;DHT22;31871;49.418;8.752;2022-09-09T16:13:52;19.00;99.90
46137;DHT22;31871;49.418;8.752;2022-09-09T16:16:20;19.00;99.90
46137;DHT22;31871;49.418;8.752;2022-09-09T16:18:48;19.00;99.90
46137;DHT22;31871;49.418;8.752;2022-09-09T16:21:17;18.80;99.90
46137;DHT22;31871;49.418;8.752;2022-09-09T16:23:43;18.80;99.90
46137;DHT22;31871;49.418;8.752;2022-09-09T16:26:14;18.80;99.90
46137;DHT22;31871;49.418;8.752;2022-09-09T16:28:40;18.80;99.90
46137;DHT22;31871;49.418;8.752;2022-09-09T16:31:07;18.90;99.90
46137;DHT22;31871;49.418;8.752;2022-09-09T16:33:33;18.80;99.90
46137;DHT22;31871;49.418;8.752;2022-09-09T16:36:05;18.80;99.90
46137;DHT22;31871;49.418;8.752;2022-09-09T16:38:31;18.80;99.90
46137;DHT22;31871;49.418;8.752;2022-09-09T16:41:00;18.70;99.90
46137;DHT22;31871;49.418;8.752;2022-09-09T16:43:26;18.90;99.90
46137;DHT22;31871;49.418;8.752;2022-09-09T16:45:51;19.00;99.90
46137;DHT22;31871;49.418;8.752;2022-09-09T16:48:17;19.00;99.90
46137;DHT22;31871;49.418;8.752;2022-09-09T16:50:42;19.00;99.90
46137;DHT22;31871;49.418;8.752;2022-09-09T16:53:08;19.10;99.90
46137;DHT22;31871;49.418;8.752;2022-09-09T16:55:39;19.20;99.90
46137;DHT22;31871;49.418;8.752;2022-09-09T16:58:05;19.30;99.90
46137;DHT22;31871;49.418;8.752;2022-09-09T17:00:30;19.30;99.90
46137;DHT22;31871;49.418;8.752;2022-09-09T17:02:56;19.30;99.90
46137;DHT22;31871;49.418;8.752;2022-09-09T17:05:21;19.20;99.90
46137;DHT22;31871;49.418;8.752;2022-09-09T17:07:48;19.10;99.90
46137;DHT22;31871;49.418;8.752;2022-09-09T17:10:14;19.00;99.90
46137;DHT22;31871;49.418;8.752;2022-09-09T17:12:39;18.90;99.90
46137;DHT22;31871;49.418;8.752;2022-09-09T17:15:06;18.90;99.90
46137;DHT22;31871;49.418;8.752;2022-09-09T17:17:32;18.70;99.90
46137;DHT22;31871;49.418;8.752;2022-09-09T17:19:57;18.50;99.90
46137;DHT22;31871;49.418;8.752;2022-09-09T17:22:23;18.50;99.90
46137;DHT22;31871;49.418;8.752;2022-09-09T17:24:49;18.50;99.90
46137;DHT22;31871;49.418;8.752;2022-09-09T17:27:14;18.50;99.90
46137;DHT22;31871;49.418;8.752;2022-09-09T17:29:40;18.40;99.90
46137;DHT22;31871;49.418;8.752;2022-09-09T17:32:06;18.40;99.90
46137;DHT22;31871;49.418;8.752;2022-09-09T17:34:36;18.40;99.90
46137;DHT22;31871;49.418;8.752;2022-09-09T17:37:01;18.30;99.90
46137;DHT22;31871;49.418;8.752;2022-09-09T17:39:27;18.30;99.90
46137;DHT22;31871;49.418;8.752;2022-09-09T17:41:53;18.30;99.90
46137;DHT22;31871;49.418;8.752;2022-09-09T17:44:19;18.20;99.90
46137;DHT22;31871;49.418;8.752;2022-09-09T17:46:45;18.20;99.90
46137;DHT22;31871;49.418;8.752;2022-09-09T17:49:13;18.20;99.90
46137;DHT22;31871;49.418;8.752;2022-09-09T17:51:40;18.20;99.90
46137;DHT22;31871;49.418;8.752;2022-09-09T17:54:12;18.10;99.90
46137;DHT22;31871;49.418;8.752;2022-09-09T17:56:39;18.00;99.90
46137;DHT22;31871;49.418;8.752;2022-09-09T17:59:07;18.10;99.90
46137;DHT22;31871;49.418;8.752;2022-09-09T18:01:35;18.00;99.90
46137;DHT22;31871;49.418;8.752;2022-09-09T18:04:04;17.90;99.90
46137;DHT22;31871;49.418;8.752;2022-09-09T18:06:35;17.80;99.90
46137;DHT22;31871;49.418;8.752;2022-09-09T18:09:04;17.80;99.90
46137;DHT22;31871;49.418;8.752;2022-09-09T18:11:34;17.90;99.90
46137;DHT22;31871;49.418;8.752;2022-09-09T18:14:03;18.00;99.90
46137;DHT22;31871;49.418;8.752;2022-09-09T18:16:31;18.00;99.90